01:10
Airports
History
Links
Donate
Help keep this website running!
PayPal
Bitcoin
This page is community maintained. The information is intended for PC simulator navigation or reference.
Always use approved charts for navigation.
EDAK
GROSSENHAIN
GROSSENHAIN (EDAK)
Grossenhain, Sachsen, Germany (1558)
(U)
Lat/Lng:51° 18' 29.2" N / 13° 33' 17.9" E
51.308111 / 13.554972
Elevation:417'ft / 127mMSL
ID / ICAO:EDAK
Runways:1
Longest:(12-30) 2,349.6m / 7,709ft Concrete
Distance To
Airport ID:
Airport Radio Frequencies
Tower: 125.8, 122.7
Nearby VORs <50NM
Nearby NDBs
Nearby WeatherUpdated 08-24-17 00:50 GMT
Nearby weather at EDDC, Dresden located 15.2 nautical miles from EDAK
Altimeter: 30.03
Visibility: 6.2 statute miles
Wind: 3 knots (160°)
Temp: 10°c 50°f
Humidity: 93.5%

METAR: EDDC 240050Z 16003KT CAVOK 10/09 Q1017

(Powered by phpweather)
Runway 12 / 30
Dimensions:2349.6 x 47.9m 7709' x 157'ft
Surface:Concrete
Runway 12 [A]Runway 30 [B]
Heading:115°TH 295°TH
Lat:
Lng:
51° 18' 45.3"N
13° 32' 22.9"E
51° 18' 13.1"N
13° 34' 12.9"E
User Notes and Comments
Google Map
Nearby Airports
(U) RIESA GOHLIS 8.8 NM
EDAU W 263°
(C) Dresden 15.2 NM
EDDC (WX) SE 142°
4 Schwarzheide Schipkau 18.9 NM
EDBZ NE 47°
(C) OSCHATZ 20.6 NM
EDOQ W 267°
(U) FALKENBERG LONNEWITZ 21.7 NM
EDUF NW 319°
(U) FINSTERWALDE SCHACKSDORF 22.1 NM
EDUS NNE 20°
4 Finsterwalde 23.2 NM
EDAS NNE 12°
VFR Chart
Flight Planning at SkyVector.com